LavenderCAM.net
Leatherhead Weather
 
 





Member of StrikeStar EU

Aviation weather for

London Heathrow (EGLL) and London Gatwick (EGKK)



London Heathrow (EGLL) METAR / Surface Actual
London / Heathrow Airport, United Kingdom (EGLL) 51-29N 000-27W 0M
Nov 19, 2018 - 07:50 AM EST / 2018.11.19 1250 UTC
Wind: from the NE (050 degrees) at 12 MPH (10 KT):0
Visibility: greater than 7 mile(s):0
Sky conditions: partly cloudy
Temperature: 44 F (7 C)
Dew Point: 39 F (4 C)
Relative Humidity: 81%
Pressure (altimeter): 30.12 in. Hg (1020 hPa)
ob: EGLL 191250Z AUTO 05010KT 9999 FEW025 SCT048 07/04 Q1020 NOSIG
cycle: 13
London Heathrow (EGLL) TAF / Forecast
2018/11/19 12:09
TAF EGLL 191056Z 1912/2018 05012KT 9999 SCT030 PROB40 
      TEMPO 1912/2018 05015G25KT 6000 SHRA 
      TEMPO 1918/2018 BKN012


London Gatwick (EGKK) METAR / Surface Actual
London / Gatwick Airport, United Kingdom (EGKK) 51-09N 000-11W 0M
Nov 19, 2018 - 07:50 AM EST / 2018.11.19 1250 UTC
Wind: from the ENE (070 degrees) at 14 MPH (12 KT):0
Visibility: greater than 7 mile(s):0
Sky conditions: partly cloudy
Weather: showers in the vicinity
Temperature: 44 F (7 C)
Dew Point: 37 F (3 C)
Relative Humidity: 75%
Pressure (altimeter): 30.09 in. Hg (1019 hPa)
ob: EGKK 191250Z 07012KT 9999 VCSH SCT028 SCT034 07/03 Q1019
cycle: 13
London Gatwick (EGKK) TAF / Forecast
2018/11/19 12:09
TAF EGKK 191057Z 1912/2018 05012KT 9999 BKN020 
      TEMPO 1912/1924 04016G26KT 6000 SHRA PROB30 
      TEMPO 1918/1924 BKN014 
      TEMPO 2000/2018 05016G26KT 6000 SHRA BKN012 PROB30 
      TEMPO 2006/2018 4000 +SHRA BKN008